sensor_id;sensor_type;location;lat;lon;timestamp;temperature;humidity
5723;DHT22;2886;49.722;8.612;2023-03-12T00:01:37;-0.60;99.90
5723;DHT22;2886;49.722;8.612;2023-03-12T00:04:04;-0.70;99.90
5723;DHT22;2886;49.722;8.612;2023-03-12T00:06:29;-0.70;99.90
5723;DHT22;2886;49.722;8.612;2023-03-12T00:08:55;-0.70;99.90
5723;DHT22;2886;49.722;8.612;2023-03-12T00:11:21;-0.70;99.90
5723;DHT22;2886;49.722;8.612;2023-03-12T00:13:52;-0.70;99.90
5723;DHT22;2886;49.722;8.612;2023-03-12T00:16:19;-0.60;99.90
5723;DHT22;2886;49.722;8.612;2023-03-12T00:18:48;-0.60;99.90
5723;DHT22;2886;49.722;8.612;2023-03-12T00:21:13;-0.40;99.90
5723;DHT22;2886;49.722;8.612;2023-03-12T00:23:39;-0.30;99.90
5723;DHT22;2886;49.722;8.612;2023-03-12T00:26:08;-0.30;99.90
5723;DHT22;2886;49.722;8.612;2023-03-12T00:28:35;-0.30;99.90
5723;DHT22;2886;49.722;8.612;2023-03-12T00:31:23;-0.30;99.90
5723;DHT22;2886;49.722;8.612;2023-03-12T00:33:48;-0.30;99.90
5723;DHT22;2886;49.722;8.612;2023-03-12T00:36:17;-0.40;99.90
5723;DHT22;2886;49.722;8.612;2023-03-12T00:38:43;-0.50;99.90
5723;DHT22;2886;49.722;8.612;2023-03-12T00:41:09;-0.50;99.90
5723;DHT22;2886;49.722;8.612;2023-03-12T00:43:35;-0.50;99.90
5723;DHT22;2886;49.722;8.612;2023-03-12T00:46:00;-0.60;99.90
5723;DHT22;2886;49.722;8.612;2023-03-12T00:48:26;-0.60;99.90
5723;DHT22;2886;49.722;8.612;2023-03-12T00:50:52;-0.70;99.90
5723;DHT22;2886;49.722;8.612;2023-03-12T00:53:17;-0.70;99.90
5723;DHT22;2886;49.722;8.612;2023-03-12T00:55:43;-0.60;99.90
5723;DHT22;2886;49.722;8.612;2023-03-12T00:58:08;-0.60;99.90
5723;DHT22;2886;49.722;8.612;2023-03-12T01:00:34;-0.60;99.90
5723;DHT22;2886;49.722;8.612;2023-03-12T01:03:00;-0.60;99.90
5723;DHT22;2886;49.722;8.612;2023-03-12T01:05:26;-0.60;99.90
5723;DHT22;2886;49.722;8.612;2023-03-12T01:07:51;-0.60;99.90
5723;DHT22;2886;49.722;8.612;2023-03-12T01:10:18;-0.50;99.90
5723;DHT22;2886;49.722;8.612;2023-03-12T01:12:44;-0.40;99.90
5723;DHT22;2886;49.722;8.612;2023-03-12T01:15:13;-0.40;99.90
5723;DHT22;2886;49.722;8.612;2023-03-12T01:17:39;-0.30;99.90
5723;DHT22;2886;49.722;8.612;2023-03-12T01:20:05;-0.20;99.90
5723;DHT22;2886;49.722;8.612;2023-03-12T01:22:33;-0.20;99.90
5723;DHT22;2886;49.722;8.612;2023-03-12T01:24:59;-0.20;99.90
5723;DHT22;2886;49.722;8.612;2023-03-12T01:27:24;-0.20;99.90
5723;DHT22;2886;49.722;8.612;2023-03-12T01:29:50;-0.20;99.90
5723;DHT22;2886;49.722;8.612;2023-03-12T01:32:16;-0.20;99.90
5723;DHT22;2886;49.722;8.612;2023-03-12T01:34:42;-0.20;99.90
5723;DHT22;2886;49.722;8.612;2023-03-12T01:37:08;-0.30;99.90
5723;DHT22;2886;49.722;8.612;2023-03-12T01:39:34;-0.30;99.90
5723;DHT22;2886;49.722;8.612;2023-03-12T01:41:59;-0.40;99.90
5723;DHT22;2886;49.722;8.612;2023-03-12T01:44:28;-0.40;99.90
5723;DHT22;2886;49.722;8.612;2023-03-12T01:46:53;-0.40;99.90
5723;DHT22;2886;49.722;8.612;2023-03-12T01:49:31;-0.30;99.90
5723;DHT22;2886;49.722;8.612;2023-03-12T01:51:58;-0.40;99.90
5723;DHT22;2886;49.722;8.612;2023-03-12T01:54:29;-0.30;99.90
5723;DHT22;2886;49.722;8.612;2023-03-12T01:56:57;-0.30;99.90
5723;DHT22;2886;49.722;8.612;2023-03-12T01:59:32;-0.20;99.90
5723;DHT22;2886;49.722;8.612;2023-03-12T02:01:58;-0.20;99.90
5723;DHT22;2886;49.722;8.612;2023-03-12T02:04:24;-0.20;99.90
5723;DHT22;2886;49.722;8.612;2023-03-12T02:07:08;-0.10;99.90
5723;DHT22;2886;49.722;8.612;2023-03-12T02:09:37;-0.10;99.90
5723;DHT22;2886;49.722;8.612;2023-03-12T02:12:05;-0.10;99.90
5723;DHT22;2886;49.722;8.612;2023-03-12T02:14:31;-0.10;99.90
5723;DHT22;2886;49.722;8.612;2023-03-12T02:16:56;-0.10;99.90
5723;DHT22;2886;49.722;8.612;2023-03-12T02:20:03;-0.10;99.90
5723;DHT22;2886;49.722;8.612;2023-03-12T02:22:34;0.00;99.90
5723;DHT22;2886;49.722;8.612;2023-03-12T02:25:16;0.00;99.90
5723;DHT22;2886;49.722;8.612;2023-03-12T02:27:42;0.10;99.90
5723;DHT22;2886;49.722;8.612;2023-03-12T02:30:09;0.10;99.90
5723;DHT22;2886;49.722;8.612;2023-03-12T02:32:37;0.00;99.90
5723;DHT22;2886;49.722;8.612;2023-03-12T02:35:04;0.00;99.90
5723;DHT22;2886;49.722;8.612;2023-03-12T02:37:30;0.00;99.90
5723;DHT22;2886;49.722;8.612;2023-03-12T02:40:02;0.00;99.90
5723;DHT22;2886;49.722;8.612;2023-03-12T02:42:30;0.00;99.90
5723;DHT22;2886;49.722;8.612;2023-03-12T02:44:57;0.00;99.90
5723;DHT22;2886;49.722;8.612;2023-03-12T02:47:22;0.20;99.90
5723;DHT22;2886;49.722;8.612;2023-03-12T02:49:48;0.30;99.90
5723;DHT22;2886;49.722;8.612;2023-03-12T02:52:14;0.40;99.90
5723;DHT22;2886;49.722;8.612;2023-03-12T02:54:41;0.40;99.90
5723;DHT22;2886;49.722;8.612;2023-03-12T02:57:06;0.40;99.90
5723;DHT22;2886;49.722;8.612;2023-03-12T02:59:33;0.40;99.90
5723;DHT22;2886;49.722;8.612;2023-03-12T03:01:59;0.40;99.90
5723;DHT22;2886;49.722;8.612;2023-03-12T03:04:30;0.30;99.90
5723;DHT22;2886;49.722;8.612;2023-03-12T03:06:56;0.30;99.90
5723;DHT22;2886;49.722;8.612;2023-03-12T03:09:22;0.40;99.90
5723;DHT22;2886;49.722;8.612;2023-03-12T03:11:49;0.40;99.90
5723;DHT22;2886;49.722;8.612;2023-03-12T03:14:15;0.40;99.90
5723;DHT22;2886;49.722;8.612;2023-03-12T03:16:40;0.40;99.90
5723;DHT22;2886;49.722;8.612;2023-03-12T03:19:06;0.40;99.90
5723;DHT22;2886;49.722;8.612;2023-03-12T03:21:33;0.50;99.90
5723;DHT22;2886;49.722;8.612;2023-03-12T03:23:59;0.60;99.90
5723;DHT22;2886;49.722;8.612;2023-03-12T03:26:25;0.60;99.90
5723;DHT22;2886;49.722;8.612;2023-03-12T03:28:51;0.60;99.90
5723;DHT22;2886;49.722;8.612;2023-03-12T03:31:17;0.60;99.90
5723;DHT22;2886;49.722;8.612;2023-03-12T03:33:43;0.70;99.90
5723;DHT22;2886;49.722;8.612;2023-03-12T03:36:10;0.70;99.90
5723;DHT22;2886;49.722;8.612;2023-03-12T03:38:38;0.70;99.90
5723;DHT22;2886;49.722;8.612;2023-03-12T03:41:03;0.70;99.90
5723;DHT22;2886;49.722;8.612;2023-03-12T03:43:29;0.70;99.90
5723;DHT22;2886;49.722;8.612;2023-03-12T03:46:01;0.70;99.90
5723;DHT22;2886;49.722;8.612;2023-03-12T03:48:27;0.60;99.90
5723;DHT22;2886;49.722;8.612;2023-03-12T03:50:53;0.60;99.90
5723;DHT22;2886;49.722;8.612;2023-03-12T03:53:19;0.60;99.90
5723;DHT22;2886;49.722;8.612;2023-03-12T03:55:45;0.50;99.90
5723;DHT22;2886;49.722;8.612;2023-03-12T03:58:11;0.50;99.90
5723;DHT22;2886;49.722;8.612;2023-03-12T04:00:37;0.60;99.90
5723;DHT22;2886;49.722;8.612;2023-03-12T04:03:03;0.60;99.90
5723;DHT22;2886;49.722;8.612;2023-03-12T04:05:29;0.60;99.90
5723;DHT22;2886;49.722;8.612;2023-03-12T04:07:55;0.70;99.90
5723;DHT22;2886;49.722;8.612;2023-03-12T04:10:22;0.80;99.90
5723;DHT22;2886;49.722;8.612;2023-03-12T04:12:49;0.80;99.90
5723;DHT22;2886;49.722;8.612;2023-03-12T04:15:15;0.90;99.90
5723;DHT22;2886;49.722;8.612;2023-03-12T04:17:41;0.90;99.90
5723;DHT22;2886;49.722;8.612;2023-03-12T04:20:07;1.00;99.90
5723;DHT22;2886;49.722;8.612;2023-03-12T04:22:35;1.00;99.90
5723;DHT22;2886;49.722;8.612;2023-03-12T04:25:01;1.00;99.90
5723;DHT22;2886;49.722;8.612;2023-03-12T04:27:26;1.00;99.90
5723;DHT22;2886;49.722;8.612;2023-03-12T04:29:52;1.10;99.90
5723;DHT22;2886;49.722;8.612;2023-03-12T04:32:18;1.10;99.90
5723;DHT22;2886;49.722;8.612;2023-03-12T04:34:43;1.10;99.90
5723;DHT22;2886;49.722;8.612;2023-03-12T04:37:09;1.20;99.90
5723;DHT22;2886;49.722;8.612;2023-03-12T04:39:42;1.20;99.90
5723;DHT22;2886;49.722;8.612;2023-03-12T04:42:09;1.20;99.90
5723;DHT22;2886;49.722;8.612;2023-03-12T04:44:54;1.10;99.90
5723;DHT22;2886;49.722;8.612;2023-03-12T04:47:20;1.20;99.90
5723;DHT22;2886;49.722;8.612;2023-03-12T04:49:47;1.30;99.90
5723;DHT22;2886;49.722;8.612;2023-03-12T04:52:12;1.30;99.90
5723;DHT22;2886;49.722;8.612;2023-03-12T04:54:39;1.30;99.90
5723;DHT22;2886;49.722;8.612;2023-03-12T04:57:04;1.40;99.90
5723;DHT22;2886;49.722;8.612;2023-03-12T04:59:30;1.40;99.90
5723;DHT22;2886;49.722;8.612;2023-03-12T05:01:56;1.40;99.90
5723;DHT22;2886;49.722;8.612;2023-03-12T05:04:21;1.50;99.90
5723;DHT22;2886;49.722;8.612;2023-03-12T05:06:47;1.50;99.90
5723;DHT22;2886;49.722;8.612;2023-03-12T05:09:13;1.50;99.90
5723;DHT22;2886;49.722;8.612;2023-03-12T05:11:38;1.50;99.90
5723;DHT22;2886;49.722;8.612;2023-03-12T05:14:04;1.60;99.90
5723;DHT22;2886;49.722;8.612;2023-03-12T05:16:29;1.60;99.90
5723;DHT22;2886;49.722;8.612;2023-03-12T05:18:55;1.70;99.90
5723;DHT22;2886;49.722;8.612;2023-03-12T05:21:21;1.80;99.90
5723;DHT22;2886;49.722;8.612;2023-03-12T05:23:47;1.80;99.90
5723;DHT22;2886;49.722;8.612;2023-03-12T05:26:25;1.90;99.90
5723;DHT22;2886;49.722;8.612;2023-03-12T05:28:52;2.00;99.90
5723;DHT22;2886;49.722;8.612;2023-03-12T05:31:20;1.90;99.90
5723;DHT22;2886;49.722;8.612;2023-03-12T05:33:46;1.90;99.90
5723;DHT22;2886;49.722;8.612;2023-03-12T05:36:12;1.90;99.90
5723;DHT22;2886;49.722;8.612;2023-03-12T05:38:39;1.90;99.90
5723;DHT22;2886;49.722;8.612;2023-03-12T05:41:05;1.90;99.90
5723;DHT22;2886;49.722;8.612;2023-03-12T05:43:31;1.90;99.90
5723;DHT22;2886;49.722;8.612;2023-03-12T05:46:01;1.90;99.90
5723;DHT22;2886;49.722;8.612;2023-03-12T05:48:27;1.90;99.90
5723;DHT22;2886;49.722;8.612;2023-03-12T05:50:53;1.90;99.90
5723;DHT22;2886;49.722;8.612;2023-03-12T05:53:18;1.90;99.90
5723;DHT22;2886;49.722;8.612;2023-03-12T05:55:44;1.90;99.90
5723;DHT22;2886;49.722;8.612;2023-03-12T05:58:09;1.90;99.90
5723;DHT22;2886;49.722;8.612;2023-03-12T06:00:35;1.80;99.90
5723;DHT22;2886;49.722;8.612;2023-03-12T06:03:05;1.90;99.90
5723;DHT22;2886;49.722;8.612;2023-03-12T06:05:32;1.90;99.90
5723;DHT22;2886;49.722;8.612;2023-03-12T06:07:58;2.00;99.40
5723;DHT22;2886;49.722;8.612;2023-03-12T06:10:24;2.00;98.80
5723;DHT22;2886;49.722;8.612;2023-03-12T06:12:50;2.10;98.60
5723;DHT22;2886;49.722;8.612;2023-03-12T06:15:16;2.10;98.80
5723;DHT22;2886;49.722;8.612;2023-03-12T06:17:42;2.10;99.20
5723;DHT22;2886;49.722;8.612;2023-03-12T06:20:09;2.10;99.70
5723;DHT22;2886;49.722;8.612;2023-03-12T06:22:34;2.10;99.90
5723;DHT22;2886;49.722;8.612;2023-03-12T06:25:00;2.20;99.90
5723;DHT22;2886;49.722;8.612;2023-03-12T06:27:26;2.20;99.90
5723;DHT22;2886;49.722;8.612;2023-03-12T06:29:58;2.10;99.90
5723;DHT22;2886;49.722;8.612;2023-03-12T06:32:23;2.10;99.90
5723;DHT22;2886;49.722;8.612;2023-03-12T06:34:50;2.10;99.90
5723;DHT22;2886;49.722;8.612;2023-03-12T06:37:16;2.00;99.90
5723;DHT22;2886;49.722;8.612;2023-03-12T06:39:41;2.00;99.90
5723;DHT22;2886;49.722;8.612;2023-03-12T06:42:07;2.00;99.90
5723;DHT22;2886;49.722;8.612;2023-03-12T06:44:33;2.10;99.90
5723;DHT22;2886;49.722;8.612;2023-03-12T06:46:58;2.10;99.90
5723;DHT22;2886;49.722;8.612;2023-03-12T06:49:24;2.20;99.90
5723;DHT22;2886;49.722;8.612;2023-03-12T06:51:52;2.30;99.90
5723;DHT22;2886;49.722;8.612;2023-03-12T06:54:18;2.40;99.90
5723;DHT22;2886;49.722;8.612;2023-03-12T06:56:44;2.40;99.90
5723;DHT22;2886;49.722;8.612;2023-03-12T06:59:10;2.50;99.90
5723;DHT22;2886;49.722;8.612;2023-03-12T07:01:36;2.60;99.90
5723;DHT22;2886;49.722;8.612;2023-03-12T07:04:01;2.70;99.90
5723;DHT22;2886;49.722;8.612;2023-03-12T07:06:27;2.80;99.90
5723;DHT22;2886;49.722;8.612;2023-03-12T07:08:53;2.80;99.90
5723;DHT22;2886;49.722;8.612;2023-03-12T07:11:18;2.90;99.90
5723;DHT22;2886;49.722;8.612;2023-03-12T07:13:44;2.90;99.90
5723;DHT22;2886;49.722;8.612;2023-03-12T07:16:10;3.00;99.90
5723;DHT22;2886;49.722;8.612;2023-03-12T07:18:36;3.00;99.90
5723;DHT22;2886;49.722;8.612;2023-03-12T07:21:02;3.10;99.90
5723;DHT22;2886;49.722;8.612;2023-03-12T07:23:28;3.10;99.90
5723;DHT22;2886;49.722;8.612;2023-03-12T07:25:53;3.20;99.90
5723;DHT22;2886;49.722;8.612;2023-03-12T07:28:20;3.20;99.90
5723;DHT22;2886;49.722;8.612;2023-03-12T07:30:46;3.20;99.90
5723;DHT22;2886;49.722;8.612;2023-03-12T07:33:16;3.20;99.90
5723;DHT22;2886;49.722;8.612;2023-03-12T07:35:42;3.30;99.90
5723;DHT22;2886;49.722;8.612;2023-03-12T07:38:08;3.40;99.90
5723;DHT22;2886;49.722;8.612;2023-03-12T07:40:35;3.40;99.90
5723;DHT22;2886;49.722;8.612;2023-03-12T07:43:01;3.40;99.90
5723;DHT22;2886;49.722;8.612;2023-03-12T07:45:27;3.30;99.90
5723;DHT22;2886;49.722;8.612;2023-03-12T07:47:52;3.30;99.90
5723;DHT22;2886;49.722;8.612;2023-03-12T07:50:19;3.30;99.90
5723;DHT22;2886;49.722;8.612;2023-03-12T07:52:45;3.30;99.90
5723;DHT22;2886;49.722;8.612;2023-03-12T07:55:12;3.40;99.90
5723;DHT22;2886;49.722;8.612;2023-03-12T07:57:37;3.40;99.90
5723;DHT22;2886;49.722;8.612;2023-03-12T08:00:04;3.40;99.90
5723;DHT22;2886;49.722;8.612;2023-03-12T08:02:32;3.50;99.90
5723;DHT22;2886;49.722;8.612;2023-03-12T08:04:59;3.50;99.90
5723;DHT22;2886;49.722;8.612;2023-03-12T08:07:24;3.60;99.90
5723;DHT22;2886;49.722;8.612;2023-03-12T08:09:51;3.50;99.90
5723;DHT22;2886;49.722;8.612;2023-03-12T08:12:17;3.50;99.90
5723;DHT22;2886;49.722;8.612;2023-03-12T08:14:43;3.50;99.90
5723;DHT22;2886;49.722;8.612;2023-03-12T08:17:09;3.50;99.90
5723;DHT22;2886;49.722;8.612;2023-03-12T08:19:35;3.50;99.90
5723;DHT22;2886;49.722;8.612;2023-03-12T08:22:01;3.50;99.90
5723;DHT22;2886;49.722;8.612;2023-03-12T08:24:27;3.50;99.90
5723;DHT22;2886;49.722;8.612;2023-03-12T08:26:52;3.40;99.90
5723;DHT22;2886;49.722;8.612;2023-03-12T08:29:19;3.40;99.90
5723;DHT22;2886;49.722;8.612;2023-03-12T08:31:45;3.50;99.90
5723;DHT22;2886;49.722;8.612;2023-03-12T08:34:10;3.40;99.90
5723;DHT22;2886;49.722;8.612;2023-03-12T08:36:37;3.40;99.90
5723;DHT22;2886;49.722;8.612;2023-03-12T08:39:03;3.40;99.90
5723;DHT22;2886;49.722;8.612;2023-03-12T08:41:28;3.50;99.90
5723;DHT22;2886;49.722;8.612;2023-03-12T08:43:54;3.50;99.90
5723;DHT22;2886;49.722;8.612;2023-03-12T08:46:20;3.50;99.90
5723;DHT22;2886;49.722;8.612;2023-03-12T08:48:46;3.50;99.90
5723;DHT22;2886;49.722;8.612;2023-03-12T08:51:12;3.50;99.90
5723;DHT22;2886;49.722;8.612;2023-03-12T08:53:37;3.50;99.90
5723;DHT22;2886;49.722;8.612;2023-03-12T08:56:04;3.60;99.90
5723;DHT22;2886;49.722;8.612;2023-03-12T08:58:30;3.60;99.90
5723;DHT22;2886;49.722;8.612;2023-03-12T09:00:56;3.70;99.90
5723;DHT22;2886;49.722;8.612;2023-03-12T09:03:23;3.70;99.90
5723;DHT22;2886;49.722;8.612;2023-03-12T09:05:50;3.80;99.90
5723;DHT22;2886;49.722;8.612;2023-03-12T09:08:16;3.80;99.90
5723;DHT22;2886;49.722;8.612;2023-03-12T09:10:47;3.90;99.90
5723;DHT22;2886;49.722;8.612;2023-03-12T09:13:14;4.00;99.90
5723;DHT22;2886;49.722;8.612;2023-03-12T09:15:40;4.10;99.90
5723;DHT22;2886;49.722;8.612;2023-03-12T09:18:06;4.20;99.90
5723;DHT22;2886;49.722;8.612;2023-03-12T09:20:31;4.40;99.90
5723;DHT22;2886;49.722;8.612;2023-03-12T09:22:57;4.40;99.90
5723;DHT22;2886;49.722;8.612;2023-03-12T09:25:23;4.50;99.90
5723;DHT22;2886;49.722;8.612;2023-03-12T09:27:48;4.60;99.90
5723;DHT22;2886;49.722;8.612;2023-03-12T09:30:18;4.70;99.90
5723;DHT22;2886;49.722;8.612;2023-03-12T09:32:44;4.70;99.90
5723;DHT22;2886;49.722;8.612;2023-03-12T09:35:11;4.70;99.90
5723;DHT22;2886;49.722;8.612;2023-03-12T09:37:37;4.80;99.90
5723;DHT22;2886;49.722;8.612;2023-03-12T09:40:04;4.80;99.90
5723;DHT22;2886;49.722;8.612;2023-03-12T09:42:47;4.80;99.90
5723;DHT22;2886;49.722;8.612;2023-03-12T09:45:28;4.80;99.90
5723;DHT22;2886;49.722;8.612;2023-03-12T09:48:00;4.90;99.90
5723;DHT22;2886;49.722;8.612;2023-03-12T09:53:02;4.90;99.90
5723;DHT22;2886;49.722;8.612;2023-03-12T09:55:38;4.90;99.90
5723;DHT22;2886;49.722;8.612;2023-03-12T09:58:17;4.90;99.90
5723;DHT22;2886;49.722;8.612;2023-03-12T10:00:46;4.90;99.90
5723;DHT22;2886;49.722;8.612;2023-03-12T10:06:05;5.10;99.90
5723;DHT22;2886;49.722;8.612;2023-03-12T10:17:42;5.30;99.90
5723;DHT22;2886;49.722;8.612;2023-03-12T10:20:32;5.40;99.90
5723;DHT22;2886;49.722;8.612;2023-03-12T10:23:08;5.50;99.90
5723;DHT22;2886;49.722;8.612;2023-03-12T10:25:50;5.50;99.90
5723;DHT22;2886;49.722;8.612;2023-03-12T10:31:24;5.60;99.90
5723;DHT22;2886;49.722;8.612;2023-03-12T10:33:57;5.80;99.90
5723;DHT22;2886;49.722;8.612;2023-03-12T10:38:58;5.90;99.90
5723;DHT22;2886;49.722;8.612;2023-03-12T10:41:27;6.00;99.90
5723;DHT22;2886;49.722;8.612;2023-03-12T10:43:56;6.30;99.90
5723;DHT22;2886;49.722;8.612;2023-03-12T10:52:17;6.00;99.90
5723;DHT22;2886;49.722;8.612;2023-03-12T10:54:46;6.00;99.90
5723;DHT22;2886;49.722;8.612;2023-03-12T10:57:13;5.90;99.90
5723;DHT22;2886;49.722;8.612;2023-03-12T10:59:44;6.00;99.90
5723;DHT22;2886;49.722;8.612;2023-03-12T11:02:42;6.10;99.90
5723;DHT22;2886;49.722;8.612;2023-03-12T11:05:27;6.30;99.90
5723;DHT22;2886;49.722;8.612;2023-03-12T11:07:54;6.60;99.90
5723;DHT22;2886;49.722;8.612;2023-03-12T11:10:21;6.70;99.90
5723;DHT22;2886;49.722;8.612;2023-03-12T11:13:33;6.80;99.90
5723;DHT22;2886;49.722;8.612;2023-03-12T11:19:02;7.40;99.90
5723;DHT22;2886;49.722;8.612;2023-03-12T11:21:33;7.30;99.90
5723;DHT22;2886;49.722;8.612;2023-03-12T11:24:10;7.40;99.90
5723;DHT22;2886;49.722;8.612;2023-03-12T11:26:51;7.60;99.90
5723;DHT22;2886;49.722;8.612;2023-03-12T11:31:57;7.60;99.90
5723;DHT22;2886;49.722;8.612;2023-03-12T11:34:27;7.70;99.90
5723;DHT22;2886;49.722;8.612;2023-03-12T11:37:20;7.70;99.90
5723;DHT22;2886;49.722;8.612;2023-03-12T11:56:55;7.70;99.90
5723;DHT22;2886;49.722;8.612;2023-03-12T12:04:33;8.00;99.90
5723;DHT22;2886;49.722;8.612;2023-03-12T12:07:14;8.20;99.90
5723;DHT22;2886;49.722;8.612;2023-03-12T12:10:21;8.50;99.90
5723;DHT22;2886;49.722;8.612;2023-03-12T12:13:22;8.70;99.90
5723;DHT22;2886;49.722;8.612;2023-03-12T12:19:26;9.20;99.90
5723;DHT22;2886;49.722;8.612;2023-03-12T12:27:25;9.80;99.90
5723;DHT22;2886;49.722;8.612;2023-03-12T12:32:58;9.80;99.90
5723;DHT22;2886;49.722;8.612;2023-03-12T12:35:38;9.90;99.90
5723;DHT22;2886;49.722;8.612;2023-03-12T12:38:15;9.90;99.90
5723;DHT22;2886;49.722;8.612;2023-03-12T12:40:52;9.90;99.90
5723;DHT22;2886;49.722;8.612;2023-03-12T12:43:31;9.90;99.90
5723;DHT22;2886;49.722;8.612;2023-03-12T12:48:49;10.10;99.90
5723;DHT22;2886;49.722;8.612;2023-03-12T12:51:19;10.20;99.90
5723;DHT22;2886;49.722;8.612;2023-03-12T13:01:36;10.00;99.90
5723;DHT22;2886;49.722;8.612;2023-03-12T13:04:15;9.90;99.90
5723;DHT22;2886;49.722;8.612;2023-03-12T13:14:55;10.20;99.90
5723;DHT22;2886;49.722;8.612;2023-03-12T13:18:00;10.20;99.90
5723;DHT22;2886;49.722;8.612;2023-03-12T13:20:19;10.30;99.90
5723;DHT22;2886;49.722;8.612;2023-03-12T13:25:33;10.30;99.90
5723;DHT22;2886;49.722;8.612;2023-03-12T13:28:30;10.30;99.90
5723;DHT22;2886;49.722;8.612;2023-03-12T13:33:47;10.20;99.90
5723;DHT22;2886;49.722;8.612;2023-03-12T13:41:39;10.10;99.90
5723;DHT22;2886;49.722;8.612;2023-03-12T13:49:39;10.50;99.90
5723;DHT22;2886;49.722;8.612;2023-03-12T13:54:38;10.50;99.90
5723;DHT22;2886;49.722;8.612;2023-03-12T13:57:39;10.50;99.90
5723;DHT22;2886;49.722;8.612;2023-03-12T14:02:50;10.60;99.90
5723;DHT22;2886;49.722;8.612;2023-03-12T14:05:19;10.80;99.90
5723;DHT22;2886;49.722;8.612;2023-03-12T14:16:24;11.30;99.90
5723;DHT22;2886;49.722;8.612;2023-03-12T14:18:52;11.30;99.90
5723;DHT22;2886;49.722;8.612;2023-03-12T14:21:20;11.20;99.90
5723;DHT22;2886;49.722;8.612;2023-03-12T14:23:56;11.30;99.90
5723;DHT22;2886;49.722;8.612;2023-03-12T14:26:25;11.20;99.90
5723;DHT22;2886;49.722;8.612;2023-03-12T14:29:00;11.30;99.90
5723;DHT22;2886;49.722;8.612;2023-03-12T14:31:29;11.60;99.90
5723;DHT22;2886;49.722;8.612;2023-03-12T14:34:04;11.80;99.90
5723;DHT22;2886;49.722;8.612;2023-03-12T14:39:41;12.30;99.20
5723;DHT22;2886;49.722;8.612;2023-03-12T14:42:08;12.50;98.10
5723;DHT22;2886;49.722;8.612;2023-03-12T14:44:36;12.70;97.60
5723;DHT22;2886;49.722;8.612;2023-03-12T14:47:08;12.80;97.10
5723;DHT22;2886;49.722;8.612;2023-03-12T14:49:46;12.90;97.20
5723;DHT22;2886;49.722;8.612;2023-03-12T14:52:13;12.90;96.90
5723;DHT22;2886;49.722;8.612;2023-03-12T14:54:39;12.90;96.90
5723;DHT22;2886;49.722;8.612;2023-03-12T14:57:19;12.90;97.40
5723;DHT22;2886;49.722;8.612;2023-03-12T14:59:52;13.00;96.80
5723;DHT22;2886;49.722;8.612;2023-03-12T15:02:18;13.00;97.10
5723;DHT22;2886;49.722;8.612;2023-03-12T15:04:45;13.00;96.80
5723;DHT22;2886;49.722;8.612;2023-03-12T15:07:15;12.90;96.90
5723;DHT22;2886;49.722;8.612;2023-03-12T15:09:43;12.80;97.30
5723;DHT22;2886;49.722;8.612;2023-03-12T15:12:32;12.70;97.60
5723;DHT22;2886;49.722;8.612;2023-03-12T15:15:06;12.70;97.70
5723;DHT22;2886;49.722;8.612;2023-03-12T15:17:33;12.70;97.90
5723;DHT22;2886;49.722;8.612;2023-03-12T15:20:02;12.70;98.00
5723;DHT22;2886;49.722;8.612;2023-03-12T15:22:30;12.80;98.40
5723;DHT22;2886;49.722;8.612;2023-03-12T15:27:45;12.80;98.30
5723;DHT22;2886;49.722;8.612;2023-03-12T15:30:29;12.90;98.20
5723;DHT22;2886;49.722;8.612;2023-03-12T15:33:06;12.90;98.00
5723;DHT22;2886;49.722;8.612;2023-03-12T15:35:33;12.90;97.90
5723;DHT22;2886;49.722;8.612;2023-03-12T15:37:58;12.90;97.70
5723;DHT22;2886;49.722;8.612;2023-03-12T15:40:26;12.80;97.40
5723;DHT22;2886;49.722;8.612;2023-03-12T15:42:53;12.80;97.70
5723;DHT22;2886;49.722;8.612;2023-03-12T15:47:48;12.80;97.90
5723;DHT22;2886;49.722;8.612;2023-03-12T15:50:26;12.80;98.00
5723;DHT22;2886;49.722;8.612;2023-03-12T15:52:58;12.80;98.20
5723;DHT22;2886;49.722;8.612;2023-03-12T15:55:30;12.70;98.20
5723;DHT22;2886;49.722;8.612;2023-03-12T15:57:57;12.70;98.50
5723;DHT22;2886;49.722;8.612;2023-03-12T16:03:03;12.60;98.80
5723;DHT22;2886;49.722;8.612;2023-03-12T16:05:36;12.50;99.00
5723;DHT22;2886;49.722;8.612;2023-03-12T16:10:54;12.50;99.20
5723;DHT22;2886;49.722;8.612;2023-03-12T16:13:24;12.50;99.30
5723;DHT22;2886;49.722;8.612;2023-03-12T16:15:53;12.40;99.40
5723;DHT22;2886;49.722;8.612;2023-03-12T16:18:20;12.40;99.40
5723;DHT22;2886;49.722;8.612;2023-03-12T16:20:48;12.40;99.90
5723;DHT22;2886;49.722;8.612;2023-03-12T16:23:14;12.40;99.60
5723;DHT22;2886;49.722;8.612;2023-03-12T16:25:51;12.30;99.50
5723;DHT22;2886;49.722;8.612;2023-03-12T16:28:19;12.30;99.60
5723;DHT22;2886;49.722;8.612;2023-03-12T16:30:45;12.30;99.70
5723;DHT22;2886;49.722;8.612;2023-03-12T16:33:13;12.20;99.70
5723;DHT22;2886;49.722;8.612;2023-03-12T16:35:39;12.20;99.80
5723;DHT22;2886;49.722;8.612;2023-03-12T16:38:05;12.20;99.90
5723;DHT22;2886;49.722;8.612;2023-03-12T16:40:33;12.10;99.90
5723;DHT22;2886;49.722;8.612;2023-03-12T16:43:01;12.10;99.90
5723;DHT22;2886;49.722;8.612;2023-03-12T16:45:29;12.00;99.90
5723;DHT22;2886;49.722;8.612;2023-03-12T16:48:00;12.00;99.90
5723;DHT22;2886;49.722;8.612;2023-03-12T16:50:27;12.00;99.50
5723;DHT22;2886;49.722;8.612;2023-03-12T16:52:53;12.00;99.50
5723;DHT22;2886;49.722;8.612;2023-03-12T16:55:21;12.00;99.10
5723;DHT22;2886;49.722;8.612;2023-03-12T16:57:52;11.90;98.60
5723;DHT22;2886;49.722;8.612;2023-03-12T17:00:25;11.90;98.30
5723;DHT22;2886;49.722;8.612;2023-03-12T17:02:52;11.90;98.40
5723;DHT22;2886;49.722;8.612;2023-03-12T17:05:23;11.80;98.10
5723;DHT22;2886;49.722;8.612;2023-03-12T17:07:49;11.80;97.80
5723;DHT22;2886;49.722;8.612;2023-03-12T17:10:15;11.80;97.80
5723;DHT22;2886;49.722;8.612;2023-03-12T17:12:41;11.80;97.70
5723;DHT22;2886;49.722;8.612;2023-03-12T17:15:12;11.80;97.80
5723;DHT22;2886;49.722;8.612;2023-03-12T17:17:38;11.80;97.80
5723;DHT22;2886;49.722;8.612;2023-03-12T17:20:04;11.70;97.70
5723;DHT22;2886;49.722;8.612;2023-03-12T17:22:32;11.80;97.30
5723;DHT22;2886;49.722;8.612;2023-03-12T17:24:58;11.70;97.20
5723;DHT22;2886;49.722;8.612;2023-03-12T17:27:24;11.60;97.40
5723;DHT22;2886;49.722;8.612;2023-03-12T17:29:50;11.70;97.30
5723;DHT22;2886;49.722;8.612;2023-03-12T17:32:15;11.60;97.40
5723;DHT22;2886;49.722;8.612;2023-03-12T17:34:41;11.60;97.50
5723;DHT22;2886;49.722;8.612;2023-03-12T17:37:07;11.60;97.40
5723;DHT22;2886;49.722;8.612;2023-03-12T17:39:34;11.50;97.40
5723;DHT22;2886;49.722;8.612;2023-03-12T17:41:59;11.50;97.60
5723;DHT22;2886;49.722;8.612;2023-03-12T17:44:25;11.50;97.30
5723;DHT22;2886;49.722;8.612;2023-03-12T17:46:57;11.50;97.10
5723;DHT22;2886;49.722;8.612;2023-03-12T17:49:22;11.50;96.90
5723;DHT22;2886;49.722;8.612;2023-03-12T17:51:48;11.50;96.20
5723;DHT22;2886;49.722;8.612;2023-03-12T17:54:14;11.50;96.10
5723;DHT22;2886;49.722;8.612;2023-03-12T17:56:39;11.50;96.00
5723;DHT22;2886;49.722;8.612;2023-03-12T17:59:05;11.50;96.10
5723;DHT22;2886;49.722;8.612;2023-03-12T18:01:31;11.50;96.30
5723;DHT22;2886;49.722;8.612;2023-03-12T18:03:56;11.40;96.00
5723;DHT22;2886;49.722;8.612;2023-03-12T18:06:22;11.40;96.10
5723;DHT22;2886;49.722;8.612;2023-03-12T18:08:48;11.40;96.20
5723;DHT22;2886;49.722;8.612;2023-03-12T18:11:14;11.30;96.40
5723;DHT22;2886;49.722;8.612;2023-03-12T18:13:40;11.30;96.70
5723;DHT22;2886;49.722;8.612;2023-03-12T18:16:05;11.30;96.50
5723;DHT22;2886;49.722;8.612;2023-03-12T18:18:33;11.20;96.70
5723;DHT22;2886;49.722;8.612;2023-03-12T18:20:59;11.20;97.00
5723;DHT22;2886;49.722;8.612;2023-03-12T18:23:24;11.20;97.30
5723;DHT22;2886;49.722;8.612;2023-03-12T18:25:51;11.20;97.10
5723;DHT22;2886;49.722;8.612;2023-03-12T18:28:17;11.10;97.30
5723;DHT22;2886;49.722;8.612;2023-03-12T18:30:47;11.10;97.40